LFMPLFPT

Guest
Details From LFMP - Rivesaltes
To LFPT - Pontoise Cormeilles En Vexin
Flight Number -
Tags Generated
Created
Modified
Stats Distance 384 nm / 711 km
Max Altitude 0 ft / 0 m
Waypoints 3
Social Downloads 0
Likes 0
Share VATSIM

Download

Looking for another format? Having issues loading an existing format? Contact us
Advertisement - Login to hide

Notes

Generated

Route

LFMP TA LFPT

ID Type Via Altitude Latitude Longitude Leg Dist Tot Dist Heading (true) Name
O LFMP APT - 0 ft / 0 m 42.73990˚ 2.86519˚ - 0 nm - Rivesaltes
TA NDB - 0 ft / 0 m 48.77229˚ 2.09744˚ 363 nm 363 nm 355° / 355° VILLACOUBLAY NDB
O LFPT APT - 0 ft / 0 m 49.10191˚ 2.02568˚ 19 nm 383 nm 352° / 352° -

Altitude Profile

Advertisement - Login to hide

Weather


0- 5 10 15 20 25 30 35+ Temperature / ° C

Clouds and Precipitation
Forecast for 2017-12-13 12:00 UTC. Updated 10 minutes ago

Ground ~20,000 ft ~40,000 ft Winds

LFMP

Details ICAO LFMP (PGF)
Name Rivesaltes
Region France
Timezone Europe/Paris (UTC+1.0)
Stats Elevation 143 ft / 44 m (AMSL)
Location 42.740488° 2.870594°
Runways 2
Magnetic Variation 0.990° E

METAR

LFMP 131130Z AUTO VRB02KT 9999 BKN096 11/M03 Q1020 TEMPO RA BKN010

Decode

TAF

TAF LFMP 130800Z 1309/1409 VRB03KT CAVOK TEMPO 1312/1409 RA BKN010 BECMG 1401/1403 28020G30KT

Decode

Departure Runways

ID Width Length Bearing (true) Bearing (mag) Surface Threshold Offset Overrun Length
13 66 ft / 20 m 4,231 ft / 1,290 m 127.54° 126.55° Asphalt 492 ft / 150 m 0 ft / 0 m
15 148 ft / 45 m 8,189 ft / 2,496 m 148.38° 147.39° Asphalt 0 ft / 0 m 230 ft / 70 m
31 66 ft / 20 m 4,231 ft / 1,290 m 307.55° 306.56° Asphalt 1,148 ft / 350 m 0 ft / 0 m
33 148 ft / 45 m 8,189 ft / 2,496 m 328.39° 327.40° Asphalt 558 ft / 170 m 230 ft / 70 m

LFPT

Details ICAO LFPT (POX)
Name Pontoise Cormeilles En Vexin
Region France
Timezone Europe/Paris (UTC+1.0)
Stats Elevation 325 ft / 99 m (AMSL)
Location 49.095793° 2.035583°
Runways 2
Magnetic Variation 0.474° E

METAR

LFPT 131130Z AUTO 23011KT 9999 OVC008 08/07 Q1004

Decode

TAF

Not found

Destination Runways

ID Width Length Bearing (true) Bearing (mag) Surface Threshold Offset Overrun Length
05 164 ft / 50 m 5,535 ft / 1,687 m 44.55° 44.08° Asphalt 0 ft / 0 m 0 ft / 0 m
12 164 ft / 50 m 5,403 ft / 1,647 m 118.18° 117.71° Asphalt 197 ft / 60 m 0 ft / 0 m
23 164 ft / 50 m 5,535 ft / 1,687 m 224.57° 224.10° Asphalt 558 ft / 170 m 0 ft / 0 m
30 164 ft / 50 m 5,403 ft / 1,647 m 298.20° 297.73° Asphalt 584 ft / 178 m 0 ft / 0 m

Approach Navaids

Runway Type Ident Frequency Range Bearing (true) Bearing (mag) Slope Elevation
05 Localiser CVN 110.95 MHz 18 nm / 33 km 44.57° 44.09° - 325 ft / 99 m (AMSL)
05 Glidescope CVN 110.95 MHz 10 nm / 19 km 44.56° 44.09° 3.20° 325 ft / 99 m (AMSL)
05 DME CVN 110.95 MHz 18 nm / 33 km - - - 325 ft / 99 m (AMSL)
23 Localiser CVN 108.09 MHz 18 nm / 33 km 224.66° 224.18° - 325 ft / 99 m (AMSL)
23 Glidescope CVN 108.09 MHz 10 nm / 19 km 224.56° 224.09° 3.00° 325 ft / 99 m (AMSL)